sensor_id;sensor_type;location;lat;lon;timestamp;temperature;humidity
14475;DHT22;7323;50.848;4.334;2022-07-29T00:00:59;19.40;1.00
14475;DHT22;7323;50.848;4.334;2022-07-29T00:03:24;19.40;1.00
14475;DHT22;7323;50.848;4.334;2022-07-29T00:05:50;19.30;1.00
14475;DHT22;7323;50.848;4.334;2022-07-29T00:08:18;19.30;1.00
14475;DHT22;7323;50.848;4.334;2022-07-29T00:10:45;19.30;1.00
14475;DHT22;7323;50.848;4.334;2022-07-29T00:13:11;19.20;1.00
14475;DHT22;7323;50.848;4.334;2022-07-29T00:15:36;19.20;1.00
14475;DHT22;7323;50.848;4.334;2022-07-29T00:18:03;19.30;1.00
14475;DHT22;7323;50.848;4.334;2022-07-29T00:20:29;19.30;1.00
14475;DHT22;7323;50.848;4.334;2022-07-29T00:22:55;19.20;1.00
14475;DHT22;7323;50.848;4.334;2022-07-29T00:25:20;19.30;1.00
14475;DHT22;7323;50.848;4.334;2022-07-29T00:27:46;19.20;1.00
14475;DHT22;7323;50.848;4.334;2022-07-29T00:30:12;19.30;1.00
14475;DHT22;7323;50.848;4.334;2022-07-29T00:32:38;19.20;1.00
14475;DHT22;7323;50.848;4.334;2022-07-29T00:35:04;19.20;1.00
14475;DHT22;7323;50.848;4.334;2022-07-29T00:37:49;19.20;1.00
14475;DHT22;7323;50.848;4.334;2022-07-29T00:40:14;19.20;1.00
14475;DHT22;7323;50.848;4.334;2022-07-29T00:42:44;19.20;1.00
14475;DHT22;7323;50.848;4.334;2022-07-29T00:45:11;19.30;1.00
14475;DHT22;7323;50.848;4.334;2022-07-29T00:47:37;19.30;1.00
14475;DHT22;7323;50.848;4.334;2022-07-29T00:50:04;19.20;1.00
14475;DHT22;7323;50.848;4.334;2022-07-29T00:52:30;19.20;1.00
14475;DHT22;7323;50.848;4.334;2022-07-29T00:54:59;19.20;1.00
14475;DHT22;7323;50.848;4.334;2022-07-29T01:00:47;19.20;1.00
14475;DHT22;7323;50.848;4.334;2022-07-29T01:03:12;19.20;1.00
14475;DHT22;7323;50.848;4.334;2022-07-29T01:05:39;19.20;1.00
14475;DHT22;7323;50.848;4.334;2022-07-29T01:08:06;19.30;1.00
14475;DHT22;7323;50.848;4.334;2022-07-29T01:10:33;19.30;1.00
14475;DHT22;7323;50.848;4.334;2022-07-29T01:13:02;19.20;1.00
14475;DHT22;7323;50.848;4.334;2022-07-29T01:15:28;19.30;1.00
14475;DHT22;7323;50.848;4.334;2022-07-29T01:18:13;19.20;1.00
14475;DHT22;7323;50.848;4.334;2022-07-29T01:32:01;19.00;1.00
14475;DHT22;7323;50.848;4.334;2022-07-29T01:37:57;18.80;1.00
14475;DHT22;7323;50.848;4.334;2022-07-29T01:40:39;18.80;1.00
14475;DHT22;7323;50.848;4.334;2022-07-29T01:43:10;18.80;1.00
14475;DHT22;7323;50.848;4.334;2022-07-29T01:46:11;18.80;1.00
14475;DHT22;7323;50.848;4.334;2022-07-29T01:48:47;18.70;1.00
14475;DHT22;7323;50.848;4.334;2022-07-29T01:54:42;18.80;1.00
14475;DHT22;7323;50.848;4.334;2022-07-29T01:57:14;18.60;1.00
14475;DHT22;7323;50.848;4.334;2022-07-29T02:03:11;18.50;1.00
14475;DHT22;7323;50.848;4.334;2022-07-29T02:05:39;18.50;1.00
14475;DHT22;7323;50.848;4.334;2022-07-29T02:08:08;18.40;1.00
14475;DHT22;7323;50.848;4.334;2022-07-29T02:10:36;18.30;1.00
14475;DHT22;7323;50.848;4.334;2022-07-29T02:13:03;18.30;1.00
14475;DHT22;7323;50.848;4.334;2022-07-29T02:15:33;18.30;1.00
14475;DHT22;7323;50.848;4.334;2022-07-29T02:18:19;18.30;1.00
14475;DHT22;7323;50.848;4.334;2022-07-29T02:20:48;18.40;1.00
14475;DHT22;7323;50.848;4.334;2022-07-29T02:23:20;18.40;1.00
14475;DHT22;7323;50.848;4.334;2022-07-29T02:25:51;18.40;1.00
14475;DHT22;7323;50.848;4.334;2022-07-29T02:28:19;18.40;1.00
14475;DHT22;7323;50.848;4.334;2022-07-29T02:30:46;18.50;1.00
14475;DHT22;7323;50.848;4.334;2022-07-29T02:33:15;18.50;1.00
14475;DHT22;7323;50.848;4.334;2022-07-29T02:35:46;18.50;1.00
14475;DHT22;7323;50.848;4.334;2022-07-29T02:41:52;18.40;1.00
14475;DHT22;7323;50.848;4.334;2022-07-29T02:44:25;18.30;1.00
14475;DHT22;7323;50.848;4.334;2022-07-29T02:49:38;18.20;1.00
14475;DHT22;7323;50.848;4.334;2022-07-29T02:52:16;18.10;1.00
14475;DHT22;7323;50.848;4.334;2022-07-29T02:55:01;18.10;1.00
14475;DHT22;7323;50.848;4.334;2022-07-29T02:57:32;18.10;1.00
14475;DHT22;7323;50.848;4.334;2022-07-29T03:00:04;18.10;1.00
14475;DHT22;7323;50.848;4.334;2022-07-29T03:02:34;18.10;1.00
14475;DHT22;7323;50.848;4.334;2022-07-29T03:05:02;18.10;1.00
14475;DHT22;7323;50.848;4.334;2022-07-29T03:07:29;18.10;1.00
14475;DHT22;7323;50.848;4.334;2022-07-29T03:09:55;18.00;1.00
14475;DHT22;7323;50.848;4.334;2022-07-29T03:12:22;18.00;1.00
14475;DHT22;7323;50.848;4.334;2022-07-29T03:14:48;18.10;1.00
14475;DHT22;7323;50.848;4.334;2022-07-29T03:17:14;18.00;1.00
14475;DHT22;7323;50.848;4.334;2022-07-29T03:19:40;18.00;1.00
14475;DHT22;7323;50.848;4.334;2022-07-29T03:22:07;18.00;1.00
14475;DHT22;7323;50.848;4.334;2022-07-29T03:24:35;18.00;1.00
14475;DHT22;7323;50.848;4.334;2022-07-29T03:27:02;18.00;1.00
14475;DHT22;7323;50.848;4.334;2022-07-29T03:29:29;17.90;1.00
14475;DHT22;7323;50.848;4.334;2022-07-29T03:31:55;17.80;1.00
14475;DHT22;7323;50.848;4.334;2022-07-29T03:34:20;17.80;1.00
14475;DHT22;7323;50.848;4.334;2022-07-29T03:36:46;17.80;1.00
14475;DHT22;7323;50.848;4.334;2022-07-29T03:39:15;17.80;1.00
14475;DHT22;7323;50.848;4.334;2022-07-29T03:41:45;17.80;1.00
14475;DHT22;7323;50.848;4.334;2022-07-29T03:44:12;17.70;1.00
14475;DHT22;7323;50.848;4.334;2022-07-29T03:46:40;17.70;1.00
14475;DHT22;7323;50.848;4.334;2022-07-29T03:49:11;17.70;1.00
14475;DHT22;7323;50.848;4.334;2022-07-29T03:51:40;17.70;1.00
14475;DHT22;7323;50.848;4.334;2022-07-29T03:54:06;17.60;1.00
14475;DHT22;7323;50.848;4.334;2022-07-29T03:56:36;17.80;1.00
14475;DHT22;7323;50.848;4.334;2022-07-29T03:59:03;17.70;1.00
14475;DHT22;7323;50.848;4.334;2022-07-29T04:01:29;17.80;1.00
14475;DHT22;7323;50.848;4.334;2022-07-29T04:03:56;17.60;1.00
14475;DHT22;7323;50.848;4.334;2022-07-29T04:06:22;17.40;1.00
14475;DHT22;7323;50.848;4.334;2022-07-29T04:09:04;17.40;1.00
14475;DHT22;7323;50.848;4.334;2022-07-29T04:11:39;17.50;1.00
14475;DHT22;7323;50.848;4.334;2022-07-29T04:14:05;17.40;1.00
14475;DHT22;7323;50.848;4.334;2022-07-29T04:16:31;17.40;1.00
14475;DHT22;7323;50.848;4.334;2022-07-29T04:18:57;17.40;1.00
14475;DHT22;7323;50.848;4.334;2022-07-29T04:21:28;17.40;1.00
14475;DHT22;7323;50.848;4.334;2022-07-29T04:23:54;17.50;1.00
14475;DHT22;7323;50.848;4.334;2022-07-29T04:26:20;17.30;1.00
14475;DHT22;7323;50.848;4.334;2022-07-29T04:28:47;17.30;1.00
14475;DHT22;7323;50.848;4.334;2022-07-29T04:31:13;17.30;1.00
14475;DHT22;7323;50.848;4.334;2022-07-29T04:33:39;17.30;1.00
14475;DHT22;7323;50.848;4.334;2022-07-29T04:36:05;17.40;1.00
14475;DHT22;7323;50.848;4.334;2022-07-29T04:38:31;17.40;1.00
14475;DHT22;7323;50.848;4.334;2022-07-29T04:40:56;17.30;1.00
14475;DHT22;7323;50.848;4.334;2022-07-29T04:43:22;17.20;1.00
14475;DHT22;7323;50.848;4.334;2022-07-29T04:45:48;17.30;1.00
14475;DHT22;7323;50.848;4.334;2022-07-29T04:48:13;17.20;1.00
14475;DHT22;7323;50.848;4.334;2022-07-29T04:50:40;17.10;1.00
14475;DHT22;7323;50.848;4.334;2022-07-29T04:53:06;17.20;1.00
14475;DHT22;7323;50.848;4.334;2022-07-29T04:55:33;17.20;1.00
14475;DHT22;7323;50.848;4.334;2022-07-29T04:57:58;17.30;1.00
14475;DHT22;7323;50.848;4.334;2022-07-29T05:00:24;17.40;1.00
14475;DHT22;7323;50.848;4.334;2022-07-29T05:02:50;17.40;1.00
14475;DHT22;7323;50.848;4.334;2022-07-29T05:05:16;17.30;1.00
14475;DHT22;7323;50.848;4.334;2022-07-29T05:07:41;17.30;1.00
14475;DHT22;7323;50.848;4.334;2022-07-29T05:10:08;17.30;1.00
14475;DHT22;7323;50.848;4.334;2022-07-29T05:12:34;17.30;1.00
14475;DHT22;7323;50.848;4.334;2022-07-29T05:15:00;17.30;1.00
14475;DHT22;7323;50.848;4.334;2022-07-29T05:17:26;17.30;1.00
14475;DHT22;7323;50.848;4.334;2022-07-29T05:19:53;17.50;1.00
14475;DHT22;7323;50.848;4.334;2022-07-29T05:22:19;17.50;1.00
14475;DHT22;7323;50.848;4.334;2022-07-29T05:24:45;17.60;1.00
14475;DHT22;7323;50.848;4.334;2022-07-29T05:27:11;17.70;1.00
14475;DHT22;7323;50.848;4.334;2022-07-29T05:29:38;17.70;1.00
14475;DHT22;7323;50.848;4.334;2022-07-29T05:32:05;17.60;1.00
14475;DHT22;7323;50.848;4.334;2022-07-29T05:34:31;17.60;1.00
14475;DHT22;7323;50.848;4.334;2022-07-29T05:36:59;17.80;1.00
14475;DHT22;7323;50.848;4.334;2022-07-29T05:39:24;17.80;1.00
14475;DHT22;7323;50.848;4.334;2022-07-29T05:41:50;17.90;1.00
14475;DHT22;7323;50.848;4.334;2022-07-29T05:44:19;17.80;1.00
14475;DHT22;7323;50.848;4.334;2022-07-29T05:46:48;17.80;1.00
14475;DHT22;7323;50.848;4.334;2022-07-29T05:49:13;17.80;1.00
14475;DHT22;7323;50.848;4.334;2022-07-29T05:51:39;17.90;1.00
14475;DHT22;7323;50.848;4.334;2022-07-29T05:54:08;18.00;1.00
14475;DHT22;7323;50.848;4.334;2022-07-29T05:59:56;17.90;1.00
14475;DHT22;7323;50.848;4.334;2022-07-29T06:02:31;17.70;1.00
14475;DHT22;7323;50.848;4.334;2022-07-29T06:08:19;17.90;1.00
14475;DHT22;7323;50.848;4.334;2022-07-29T06:10:47;17.90;1.00
14475;DHT22;7323;50.848;4.334;2022-07-29T06:16:37;18.10;1.00
14475;DHT22;7323;50.848;4.334;2022-07-29T06:19:02;18.20;1.00
14475;DHT22;7323;50.848;4.334;2022-07-29T06:21:28;18.20;1.00
14475;DHT22;7323;50.848;4.334;2022-07-29T06:23:53;18.20;1.00
14475;DHT22;7323;50.848;4.334;2022-07-29T06:26:20;18.30;1.00
14475;DHT22;7323;50.848;4.334;2022-07-29T06:28:46;18.40;1.00
14475;DHT22;7323;50.848;4.334;2022-07-29T06:31:12;18.40;1.00
14475;DHT22;7323;50.848;4.334;2022-07-29T06:33:38;18.40;1.00
14475;DHT22;7323;50.848;4.334;2022-07-29T06:36:17;18.50;1.00
14475;DHT22;7323;50.848;4.334;2022-07-29T06:38:45;18.50;1.00
14475;DHT22;7323;50.848;4.334;2022-07-29T06:41:12;18.50;1.00
14475;DHT22;7323;50.848;4.334;2022-07-29T06:43:43;18.50;1.00
14475;DHT22;7323;50.848;4.334;2022-07-29T06:46:16;18.70;1.00
14475;DHT22;7323;50.848;4.334;2022-07-29T06:48:46;18.90;1.00
14475;DHT22;7323;50.848;4.334;2022-07-29T06:51:13;18.90;1.00
14475;DHT22;7323;50.848;4.334;2022-07-29T06:53:39;19.10;1.00
14475;DHT22;7323;50.848;4.334;2022-07-29T06:56:06;19.20;1.00
14475;DHT22;7323;50.848;4.334;2022-07-29T06:58:37;19.40;1.00
14475;DHT22;7323;50.848;4.334;2022-07-29T07:01:06;19.50;1.00
14475;DHT22;7323;50.848;4.334;2022-07-29T07:03:33;19.60;1.00
14475;DHT22;7323;50.848;4.334;2022-07-29T07:06:00;19.50;1.00
14475;DHT22;7323;50.848;4.334;2022-07-29T07:08:25;19.50;1.00
14475;DHT22;7323;50.848;4.334;2022-07-29T07:10:52;19.40;1.00
14475;DHT22;7323;50.848;4.334;2022-07-29T07:13:18;19.40;1.00
14475;DHT22;7323;50.848;4.334;2022-07-29T07:15:46;19.50;1.00
14475;DHT22;7323;50.848;4.334;2022-07-29T07:18:14;19.70;1.00
14475;DHT22;7323;50.848;4.334;2022-07-29T07:20:41;19.60;1.00
14475;DHT22;7323;50.848;4.334;2022-07-29T07:23:07;19.80;1.00
14475;DHT22;7323;50.848;4.334;2022-07-29T07:25:33;19.80;1.00
14475;DHT22;7323;50.848;4.334;2022-07-29T07:27:59;19.70;1.00
14475;DHT22;7323;50.848;4.334;2022-07-29T07:30:25;19.70;1.00
14475;DHT22;7323;50.848;4.334;2022-07-29T07:32:52;19.80;1.00
14475;DHT22;7323;50.848;4.334;2022-07-29T07:35:17;19.90;1.00
14475;DHT22;7323;50.848;4.334;2022-07-29T07:37:43;20.00;1.00
14475;DHT22;7323;50.848;4.334;2022-07-29T07:40:10;20.10;1.00
14475;DHT22;7323;50.848;4.334;2022-07-29T07:42:40;20.20;1.00
14475;DHT22;7323;50.848;4.334;2022-07-29T07:45:07;20.20;1.00
14475;DHT22;7323;50.848;4.334;2022-07-29T07:47:36;20.30;1.00
14475;DHT22;7323;50.848;4.334;2022-07-29T07:50:06;20.40;1.00
14475;DHT22;7323;50.848;4.334;2022-07-29T07:52:32;20.40;1.00
14475;DHT22;7323;50.848;4.334;2022-07-29T07:54:59;20.40;1.00
14475;DHT22;7323;50.848;4.334;2022-07-29T07:57:25;20.50;1.00
14475;DHT22;7323;50.848;4.334;2022-07-29T07:59:51;20.60;1.00
14475;DHT22;7323;50.848;4.334;2022-07-29T08:02:17;20.60;1.00
14475;DHT22;7323;50.848;4.334;2022-07-29T08:04:42;20.70;1.00
14475;DHT22;7323;50.848;4.334;2022-07-29T08:07:08;20.80;1.00
14475;DHT22;7323;50.848;4.334;2022-07-29T08:09:35;20.90;1.00
14475;DHT22;7323;50.848;4.334;2022-07-29T08:12:01;21.10;1.00
14475;DHT22;7323;50.848;4.334;2022-07-29T08:14:31;21.10;1.00
14475;DHT22;7323;50.848;4.334;2022-07-29T08:17:03;21.10;1.00
14475;DHT22;7323;50.848;4.334;2022-07-29T08:19:29;21.40;1.00
14475;DHT22;7323;50.848;4.334;2022-07-29T08:21:55;21.30;1.00
14475;DHT22;7323;50.848;4.334;2022-07-29T08:24:21;21.30;1.00
14475;DHT22;7323;50.848;4.334;2022-07-29T08:27:05;21.40;1.00
14475;DHT22;7323;50.848;4.334;2022-07-29T08:29:31;21.60;1.00
14475;DHT22;7323;50.848;4.334;2022-07-29T08:31:57;21.70;99.90
14475;DHT22;7323;50.848;4.334;2022-07-29T08:34:22;21.90;99.90
14475;DHT22;7323;50.848;4.334;2022-07-29T08:36:48;21.90;99.90
14475;DHT22;7323;50.848;4.334;2022-07-29T08:39:14;22.10;99.90
14475;DHT22;7323;50.848;4.334;2022-07-29T08:41:39;22.40;99.90
14475;DHT22;7323;50.848;4.334;2022-07-29T08:44:05;22.30;99.90
14475;DHT22;7323;50.848;4.334;2022-07-29T08:46:31;22.30;99.90
14475;DHT22;7323;50.848;4.334;2022-07-29T08:48:57;22.40;99.90
14475;DHT22;7323;50.848;4.334;2022-07-29T08:51:25;22.60;99.90
14475;DHT22;7323;50.848;4.334;2022-07-29T08:53:53;22.60;99.90
14475;DHT22;7323;50.848;4.334;2022-07-29T08:56:20;22.50;99.90
14475;DHT22;7323;50.848;4.334;2022-07-29T08:58:47;22.50;99.90
14475;DHT22;7323;50.848;4.334;2022-07-29T09:01:17;22.80;99.90
14475;DHT22;7323;50.848;4.334;2022-07-29T09:03:47;22.80;99.90
14475;DHT22;7323;50.848;4.334;2022-07-29T09:06:18;22.80;99.90
14475;DHT22;7323;50.848;4.334;2022-07-29T09:08:45;22.80;99.90
14475;DHT22;7323;50.848;4.334;2022-07-29T09:11:14;22.90;99.90
14475;DHT22;7323;50.848;4.334;2022-07-29T09:13:40;22.90;26.70
14475;DHT22;7323;50.848;4.334;2022-07-29T09:16:06;22.90;1.00
14475;DHT22;7323;50.848;4.334;2022-07-29T09:18:43;22.90;1.00
14475;DHT22;7323;50.848;4.334;2022-07-29T09:21:15;23.00;1.00
14475;DHT22;7323;50.848;4.334;2022-07-29T09:24:08;23.00;1.00
14475;DHT22;7323;50.848;4.334;2022-07-29T09:26:37;22.80;1.00
14475;DHT22;7323;50.848;4.334;2022-07-29T09:29:41;23.00;1.00
14475;DHT22;7323;50.848;4.334;2022-07-29T09:32:09;22.90;1.00
14475;DHT22;7323;50.848;4.334;2022-07-29T09:34:36;22.90;1.00
14475;DHT22;7323;50.848;4.334;2022-07-29T09:37:03;22.80;1.00
14475;DHT22;7323;50.848;4.334;2022-07-29T09:39:38;22.80;1.00
14475;DHT22;7323;50.848;4.334;2022-07-29T09:42:11;22.90;1.00
14475;DHT22;7323;50.848;4.334;2022-07-29T09:47:11;23.00;1.00
14475;DHT22;7323;50.848;4.334;2022-07-29T09:49:58;23.00;1.00
14475;DHT22;7323;50.848;4.334;2022-07-29T09:52:28;23.10;99.90
14475;DHT22;7323;50.848;4.334;2022-07-29T09:55:08;23.30;99.90
14475;DHT22;7323;50.848;4.334;2022-07-29T09:57:37;23.10;1.00
14475;DHT22;7323;50.848;4.334;2022-07-29T10:06:59;23.10;1.00
14475;DHT22;7323;50.848;4.334;2022-07-29T10:09:25;23.40;1.00
14475;DHT22;7323;50.848;4.334;2022-07-29T10:12:11;23.50;99.90
14475;DHT22;7323;50.848;4.334;2022-07-29T10:14:40;23.40;89.50
14475;DHT22;7323;50.848;4.334;2022-07-29T10:17:07;23.60;1.00
14475;DHT22;7323;50.848;4.334;2022-07-29T10:19:35;23.70;1.00
14475;DHT22;7323;50.848;4.334;2022-07-29T10:22:19;23.60;61.50
14475;DHT22;7323;50.848;4.334;2022-07-29T10:24:47;23.60;55.40
14475;DHT22;7323;50.848;4.334;2022-07-29T10:27:14;23.70;99.90
14475;DHT22;7323;50.848;4.334;2022-07-29T10:29:40;23.80;99.90
14475;DHT22;7323;50.848;4.334;2022-07-29T10:40:15;24.10;99.90
14475;DHT22;7323;50.848;4.334;2022-07-29T10:46:17;24.10;1.00
14475;DHT22;7323;50.848;4.334;2022-07-29T10:59:48;24.80;1.00
14475;DHT22;7323;50.848;4.334;2022-07-29T11:05:55;24.50;1.00
14475;DHT22;7323;50.848;4.334;2022-07-29T11:08:24;24.60;99.90
14475;DHT22;7323;50.848;4.334;2022-07-29T11:10:53;24.40;99.90
14475;DHT22;7323;50.848;4.334;2022-07-29T11:16:09;24.70;99.90
14475;DHT22;7323;50.848;4.334;2022-07-29T11:18:35;25.00;34.20
14475;DHT22;7323;50.848;4.334;2022-07-29T11:21:01;25.00;1.00
14475;DHT22;7323;50.848;4.334;2022-07-29T11:23:30;24.80;1.00
14475;DHT22;7323;50.848;4.334;2022-07-29T11:26:14;24.70;99.90
14475;DHT22;7323;50.848;4.334;2022-07-29T11:32:21;24.70;99.90
14475;DHT22;7323;50.848;4.334;2022-07-29T11:35:13;25.00;99.90
14475;DHT22;7323;50.848;4.334;2022-07-29T11:37:41;25.20;22.20
14475;DHT22;7323;50.848;4.334;2022-07-29T11:40:08;25.40;99.90
14475;DHT22;7323;50.848;4.334;2022-07-29T11:50:27;25.30;1.00
14475;DHT22;7323;50.848;4.334;2022-07-29T11:52:53;25.20;1.00
14475;DHT22;7323;50.848;4.334;2022-07-29T11:55:23;25.40;1.00
14475;DHT22;7323;50.848;4.334;2022-07-29T11:57:54;25.50;1.00
14475;DHT22;7323;50.848;4.334;2022-07-29T12:00:28;25.70;1.00
14475;DHT22;7323;50.848;4.334;2022-07-29T12:02:55;25.70;1.00
14475;DHT22;7323;50.848;4.334;2022-07-29T12:05:30;25.90;99.90
14475;DHT22;7323;50.848;4.334;2022-07-29T12:08:11;26.20;99.90
14475;DHT22;7323;50.848;4.334;2022-07-29T12:10:38;26.20;99.90
14475;DHT22;7323;50.848;4.334;2022-07-29T12:13:15;26.20;99.90
14475;DHT22;7323;50.848;4.334;2022-07-29T12:15:42;26.30;99.90
14475;DHT22;7323;50.848;4.334;2022-07-29T12:18:20;26.20;99.90
14475;DHT22;7323;50.848;4.334;2022-07-29T12:21:02;26.30;99.90
14475;DHT22;7323;50.848;4.334;2022-07-29T12:23:32;26.40;99.90
14475;DHT22;7323;50.848;4.334;2022-07-29T12:25:58;26.40;99.90
14475;DHT22;7323;50.848;4.334;2022-07-29T12:28:25;26.40;26.50
14475;DHT22;7323;50.848;4.334;2022-07-29T12:30:51;26.40;1.00
14475;DHT22;7323;50.848;4.334;2022-07-29T12:33:20;26.50;1.00
14475;DHT22;7323;50.848;4.334;2022-07-29T12:35:51;26.50;1.00
14475;DHT22;7323;50.848;4.334;2022-07-29T12:41:54;26.60;1.00
14475;DHT22;7323;50.848;4.334;2022-07-29T12:44:20;26.40;11.20
14475;DHT22;7323;50.848;4.334;2022-07-29T12:47:02;26.30;46.80
14475;DHT22;7323;50.848;4.334;2022-07-29T12:49:27;26.60;74.50
14475;DHT22;7323;50.848;4.334;2022-07-29T12:51:53;26.90;36.70
14475;DHT22;7323;50.848;4.334;2022-07-29T12:54:19;27.00;1.00
14475;DHT22;7323;50.848;4.334;2022-07-29T12:56:45;26.90;1.00
14475;DHT22;7323;50.848;4.334;2022-07-29T12:59:21;26.50;1.00
14475;DHT22;7323;50.848;4.334;2022-07-29T13:01:48;26.20;1.00
14475;DHT22;7323;50.848;4.334;2022-07-29T13:05:00;26.10;1.00
14475;DHT22;7323;50.848;4.334;2022-07-29T13:07:28;26.00;1.00
14475;DHT22;7323;50.848;4.334;2022-07-29T13:10:16;25.90;1.00
14475;DHT22;7323;50.848;4.334;2022-07-29T13:13:11;26.00;1.00
14475;DHT22;7323;50.848;4.334;2022-07-29T13:15:45;25.80;1.00
14475;DHT22;7323;50.848;4.334;2022-07-29T13:18:33;25.80;11.60
14475;DHT22;7323;50.848;4.334;2022-07-29T13:21:13;25.90;1.00
14475;DHT22;7323;50.848;4.334;2022-07-29T13:23:39;26.00;1.00
14475;DHT22;7323;50.848;4.334;2022-07-29T13:26:09;26.20;1.00
14475;DHT22;7323;50.848;4.334;2022-07-29T13:28:35;26.20;1.00
14475;DHT22;7323;50.848;4.334;2022-07-29T13:31:02;26.30;1.00
14475;DHT22;7323;50.848;4.334;2022-07-29T13:33:28;26.30;1.00
14475;DHT22;7323;50.848;4.334;2022-07-29T13:35:54;26.40;1.00
14475;DHT22;7323;50.848;4.334;2022-07-29T13:38:20;26.30;1.00
14475;DHT22;7323;50.848;4.334;2022-07-29T13:40:45;26.30;1.00
14475;DHT22;7323;50.848;4.334;2022-07-29T13:43:11;26.20;1.00
14475;DHT22;7323;50.848;4.334;2022-07-29T13:45:38;26.30;1.00
14475;DHT22;7323;50.848;4.334;2022-07-29T13:48:04;26.30;1.00
14475;DHT22;7323;50.848;4.334;2022-07-29T13:50:32;26.30;1.00
14475;DHT22;7323;50.848;4.334;2022-07-29T13:52:58;26.50;1.00
14475;DHT22;7323;50.848;4.334;2022-07-29T13:55:23;26.30;1.00
14475;DHT22;7323;50.848;4.334;2022-07-29T13:57:52;26.20;1.00
14475;DHT22;7323;50.848;4.334;2022-07-29T14:00:21;26.10;1.00
14475;DHT22;7323;50.848;4.334;2022-07-29T14:02:56;26.00;1.00
14475;DHT22;7323;50.848;4.334;2022-07-29T14:09:03;26.30;99.90
14475;DHT22;7323;50.848;4.334;2022-07-29T14:11:34;26.70;99.90
14475;DHT22;7323;50.848;4.334;2022-07-29T14:14:00;26.90;99.90
14475;DHT22;7323;50.848;4.334;2022-07-29T14:16:31;27.00;99.90
14475;DHT22;7323;50.848;4.334;2022-07-29T14:18:57;27.00;1.00
14475;DHT22;7323;50.848;4.334;2022-07-29T14:21:23;26.70;1.00
14475;DHT22;7323;50.848;4.334;2022-07-29T14:23:48;26.70;1.00
14475;DHT22;7323;50.848;4.334;2022-07-29T14:26:17;26.70;1.00
14475;DHT22;7323;50.848;4.334;2022-07-29T14:28:43;26.80;99.90
14475;DHT22;7323;50.848;4.334;2022-07-29T14:31:09;26.70;99.90
14475;DHT22;7323;50.848;4.334;2022-07-29T14:33:35;26.70;99.90
14475;DHT22;7323;50.848;4.334;2022-07-29T14:36:01;26.90;99.90
14475;DHT22;7323;50.848;4.334;2022-07-29T14:38:26;26.70;99.90
14475;DHT22;7323;50.848;4.334;2022-07-29T14:40:53;27.10;99.90
14475;DHT22;7323;50.848;4.334;2022-07-29T14:43:19;27.10;99.90
14475;DHT22;7323;50.848;4.334;2022-07-29T14:45:46;27.40;99.90
14475;DHT22;7323;50.848;4.334;2022-07-29T14:48:12;27.40;99.90
14475;DHT22;7323;50.848;4.334;2022-07-29T14:50:39;26.90;99.90
14475;DHT22;7323;50.848;4.334;2022-07-29T14:53:06;26.60;99.90
14475;DHT22;7323;50.848;4.334;2022-07-29T14:55:32;26.60;99.90
14475;DHT22;7323;50.848;4.334;2022-07-29T14:58:00;26.60;99.90
14475;DHT22;7323;50.848;4.334;2022-07-29T15:00:25;26.50;99.90
14475;DHT22;7323;50.848;4.334;2022-07-29T15:02:51;26.10;99.90
14475;DHT22;7323;50.848;4.334;2022-07-29T15:05:17;26.00;99.90
14475;DHT22;7323;50.848;4.334;2022-07-29T15:07:49;26.00;1.00
14475;DHT22;7323;50.848;4.334;2022-07-29T15:10:48;25.90;1.00
14475;DHT22;7323;50.848;4.334;2022-07-29T15:13:14;25.90;1.00
14475;DHT22;7323;50.848;4.334;2022-07-29T15:15:40;26.00;99.90
14475;DHT22;7323;50.848;4.334;2022-07-29T15:18:09;26.20;99.90
14475;DHT22;7323;50.848;4.334;2022-07-29T15:20:35;26.30;99.90
14475;DHT22;7323;50.848;4.334;2022-07-29T15:23:01;26.50;99.90
14475;DHT22;7323;50.848;4.334;2022-07-29T15:25:26;26.70;99.90
14475;DHT22;7323;50.848;4.334;2022-07-29T15:27:55;26.50;99.90
14475;DHT22;7323;50.848;4.334;2022-07-29T15:30:24;26.40;99.90
14475;DHT22;7323;50.848;4.334;2022-07-29T15:32:50;26.40;99.90
14475;DHT22;7323;50.848;4.334;2022-07-29T15:35:16;26.50;99.90
14475;DHT22;7323;50.848;4.334;2022-07-29T15:37:43;26.30;99.90
14475;DHT22;7323;50.848;4.334;2022-07-29T15:40:10;26.50;99.90
14475;DHT22;7323;50.848;4.334;2022-07-29T15:42:36;26.60;99.90
14475;DHT22;7323;50.848;4.334;2022-07-29T15:45:03;26.50;99.90
14475;DHT22;7323;50.848;4.334;2022-07-29T15:47:29;26.50;99.90
14475;DHT22;7323;50.848;4.334;2022-07-29T15:49:55;26.70;99.90
14475;DHT22;7323;50.848;4.334;2022-07-29T15:52:21;26.90;99.90
14475;DHT22;7323;50.848;4.334;2022-07-29T15:54:46;26.70;99.90
14475;DHT22;7323;50.848;4.334;2022-07-29T15:57:15;26.80;99.90
14475;DHT22;7323;50.848;4.334;2022-07-29T15:59:41;27.00;99.90
14475;DHT22;7323;50.848;4.334;2022-07-29T16:02:07;27.20;99.90
14475;DHT22;7323;50.848;4.334;2022-07-29T16:04:33;27.50;99.90
14475;DHT22;7323;50.848;4.334;2022-07-29T16:06:59;27.30;99.90
14475;DHT22;7323;50.848;4.334;2022-07-29T16:09:25;27.70;99.90
14475;DHT22;7323;50.848;4.334;2022-07-29T16:11:53;27.80;99.90
14475;DHT22;7323;50.848;4.334;2022-07-29T16:14:20;27.90;99.90
14475;DHT22;7323;50.848;4.334;2022-07-29T16:16:46;27.70;99.90
14475;DHT22;7323;50.848;4.334;2022-07-29T16:19:11;27.50;99.90
14475;DHT22;7323;50.848;4.334;2022-07-29T16:21:37;27.30;99.90
14475;DHT22;7323;50.848;4.334;2022-07-29T16:24:05;27.30;99.90
14475;DHT22;7323;50.848;4.334;2022-07-29T16:26:32;27.40;99.90
14475;DHT22;7323;50.848;4.334;2022-07-29T16:28:58;27.40;99.90
14475;DHT22;7323;50.848;4.334;2022-07-29T16:31:25;27.50;99.90
14475;DHT22;7323;50.848;4.334;2022-07-29T16:33:51;27.20;99.90
14475;DHT22;7323;50.848;4.334;2022-07-29T16:36:17;27.20;99.90
14475;DHT22;7323;50.848;4.334;2022-07-29T16:38:45;27.30;99.90
14475;DHT22;7323;50.848;4.334;2022-07-29T16:41:11;27.40;99.90
14475;DHT22;7323;50.848;4.334;2022-07-29T16:43:36;27.30;99.90
14475;DHT22;7323;50.848;4.334;2022-07-29T16:46:02;27.30;99.90
14475;DHT22;7323;50.848;4.334;2022-07-29T16:48:28;27.40;99.90
14475;DHT22;7323;50.848;4.334;2022-07-29T16:50:54;27.50;99.90
14475;DHT22;7323;50.848;4.334;2022-07-29T16:53:20;27.40;99.90
14475;DHT22;7323;50.848;4.334;2022-07-29T16:55:48;27.30;99.90
14475;DHT22;7323;50.848;4.334;2022-07-29T16:58:14;27.30;99.90
14475;DHT22;7323;50.848;4.334;2022-07-29T17:00:39;27.40;99.90
14475;DHT22;7323;50.848;4.334;2022-07-29T17:03:05;27.40;99.90
14475;DHT22;7323;50.848;4.334;2022-07-29T17:05:31;27.50;99.90
14475;DHT22;7323;50.848;4.334;2022-07-29T17:07:57;27.30;99.90
14475;DHT22;7323;50.848;4.334;2022-07-29T17:10:24;27.40;99.90
14475;DHT22;7323;50.848;4.334;2022-07-29T17:12:51;27.30;99.90
14475;DHT22;7323;50.848;4.334;2022-07-29T17:15:18;27.20;99.90
14475;DHT22;7323;50.848;4.334;2022-07-29T17:17:45;27.20;99.90
14475;DHT22;7323;50.848;4.334;2022-07-29T17:20:12;27.30;99.90
14475;DHT22;7323;50.848;4.334;2022-07-29T17:22:38;27.50;99.90
14475;DHT22;7323;50.848;4.334;2022-07-29T17:25:06;27.40;99.90
14475;DHT22;7323;50.848;4.334;2022-07-29T17:27:35;27.30;99.90
14475;DHT22;7323;50.848;4.334;2022-07-29T17:30:03;27.40;99.90
14475;DHT22;7323;50.848;4.334;2022-07-29T17:32:33;27.30;99.90
14475;DHT22;7323;50.848;4.334;2022-07-29T17:35:04;27.10;99.90
14475;DHT22;7323;50.848;4.334;2022-07-29T17:37:51;27.10;99.90
14475;DHT22;7323;50.848;4.334;2022-07-29T17:40:17;27.00;99.90
14475;DHT22;7323;50.848;4.334;2022-07-29T17:42:43;27.00;99.90
14475;DHT22;7323;50.848;4.334;2022-07-29T17:45:10;26.90;1.00